sensor_id;sensor_type;location;lat;lon;timestamp;P1;durP1;ratioP1;P2;durP2;ratioP2
23044;SDS011;11690;51.716;23.066;2023-09-30T00:02:10;24.52;;;14.73;;
23044;SDS011;11690;51.716;23.066;2023-09-30T00:04:39;23.58;;;14.20;;
23044;SDS011;11690;51.716;23.066;2023-09-30T00:07:06;27.33;;;14.68;;
23044;SDS011;11690;51.716;23.066;2023-09-30T00:09:33;29.00;;;15.25;;
23044;SDS011;11690;51.716;23.066;2023-09-30T00:12:00;24.77;;;14.55;;
23044;SDS011;11690;51.716;23.066;2023-09-30T00:14:28;32.85;;;15.38;;
23044;SDS011;11690;51.716;23.066;2023-09-30T00:16:56;25.45;;;13.93;;
23044;SDS011;11690;51.716;23.066;2023-09-30T00:19:23;25.92;;;15.40;;
23044;SDS011;11690;51.716;23.066;2023-09-30T00:21:50;23.90;;;13.70;;
23044;SDS011;11690;51.716;23.066;2023-09-30T00:24:18;26.17;;;14.50;;
23044;SDS011;11690;51.716;23.066;2023-09-30T00:26:45;26.55;;;14.45;;
23044;SDS011;11690;51.716;23.066;2023-09-30T00:29:13;24.70;;;14.63;;
23044;SDS011;11690;51.716;23.066;2023-09-30T00:31:40;28.90;;;14.52;;
23044;SDS011;11690;51.716;23.066;2023-09-30T00:34:08;24.02;;;14.85;;
23044;SDS011;11690;51.716;23.066;2023-09-30T00:36:35;24.92;;;13.93;;
23044;SDS011;11690;51.716;23.066;2023-09-30T00:39:02;23.95;;;13.85;;
23044;SDS011;11690;51.716;23.066;2023-09-30T00:41:30;21.58;;;13.25;;
23044;SDS011;11690;51.716;23.066;2023-09-30T00:43:58;32.00;;;14.07;;
23044;SDS011;11690;51.716;23.066;2023-09-30T00:46:28;27.42;;;14.05;;
23044;SDS011;11690;51.716;23.066;2023-09-30T00:48:57;25.27;;;13.80;;
23044;SDS011;11690;51.716;23.066;2023-09-30T00:51:25;20.60;;;13.32;;
23044;SDS011;11690;51.716;23.066;2023-09-30T00:53:54;26.15;;;13.57;;
23044;SDS011;11690;51.716;23.066;2023-09-30T00:56:24;24.58;;;13.52;;
23044;SDS011;11690;51.716;23.066;2023-09-30T00:58:53;24.60;;;13.90;;
23044;SDS011;11690;51.716;23.066;2023-09-30T01:01:21;25.98;;;15.20;;
23044;SDS011;11690;51.716;23.066;2023-09-30T01:03:48;34.30;;;25.98;;
23044;SDS011;11690;51.716;23.066;2023-09-30T01:06:16;43.97;;;31.00;;
23044;SDS011;11690;51.716;23.066;2023-09-30T01:08:43;46.00;;;35.58;;
23044;SDS011;11690;51.716;23.066;2023-09-30T01:11:11;42.28;;;34.38;;
23044;SDS011;11690;51.716;23.066;2023-09-30T01:13:39;46.35;;;35.45;;
23044;SDS011;11690;51.716;23.066;2023-09-30T01:16:07;49.15;;;40.60;;
23044;SDS011;11690;51.716;23.066;2023-09-30T01:18:39;212.02;;;158.50;;
23044;SDS011;11690;51.716;23.066;2023-09-30T01:21:07;152.63;;;116.10;;
23044;SDS011;11690;51.716;23.066;2023-09-30T01:23:35;106.43;;;85.40;;
23044;SDS011;11690;51.716;23.066;2023-09-30T01:26:03;83.78;;;69.05;;
23044;SDS011;11690;51.716;23.066;2023-09-30T01:28:31;57.65;;;47.95;;
23044;SDS011;11690;51.716;23.066;2023-09-30T01:30:58;52.83;;;41.88;;
23044;SDS011;11690;51.716;23.066;2023-09-30T01:33:26;53.80;;;38.15;;
23044;SDS011;11690;51.716;23.066;2023-09-30T01:35:53;26.83;;;16.13;;
23044;SDS011;11690;51.716;23.066;2023-09-30T01:38:21;32.97;;;20.13;;
23044;SDS011;11690;51.716;23.066;2023-09-30T01:40:48;24.73;;;14.23;;
23044;SDS011;11690;51.716;23.066;2023-09-30T01:43:15;34.60;;;22.35;;
23044;SDS011;11690;51.716;23.066;2023-09-30T01:45:44;25.83;;;17.42;;
23044;SDS011;11690;51.716;23.066;2023-09-30T01:48:12;29.70;;;19.25;;
23044;SDS011;11690;51.716;23.066;2023-09-30T01:50:39;33.28;;;16.80;;
23044;SDS011;11690;51.716;23.066;2023-09-30T01:53:07;25.48;;;14.75;;
23044;SDS011;11690;51.716;23.066;2023-09-30T01:55:34;25.40;;;14.30;;
23044;SDS011;11690;51.716;23.066;2023-09-30T01:58:03;23.25;;;13.48;;
23044;SDS011;11690;51.716;23.066;2023-09-30T02:00:30;20.95;;;12.50;;
23044;SDS011;11690;51.716;23.066;2023-09-30T02:02:57;23.92;;;12.60;;
23044;SDS011;11690;51.716;23.066;2023-09-30T02:05:25;23.02;;;12.27;;
23044;SDS011;11690;51.716;23.066;2023-09-30T02:07:52;16.95;;;11.57;;
23044;SDS011;11690;51.716;23.066;2023-09-30T02:10:19;22.88;;;12.93;;
23044;SDS011;11690;51.716;23.066;2023-09-30T02:12:47;24.42;;;13.25;;
23044;SDS011;11690;51.716;23.066;2023-09-30T02:15:14;23.30;;;12.30;;
23044;SDS011;11690;51.716;23.066;2023-09-30T02:17:43;31.30;;;12.73;;
23044;SDS011;11690;51.716;23.066;2023-09-30T02:20:13;20.20;;;12.10;;
23044;SDS011;11690;51.716;23.066;2023-09-30T02:22:45;20.85;;;12.88;;
23044;SDS011;11690;51.716;23.066;2023-09-30T02:25:14;23.67;;;12.20;;
23044;SDS011;11690;51.716;23.066;2023-09-30T02:27:42;22.08;;;12.25;;
23044;SDS011;11690;51.716;23.066;2023-09-30T02:30:10;19.42;;;11.38;;
23044;SDS011;11690;51.716;23.066;2023-09-30T02:32:39;21.15;;;11.95;;
23044;SDS011;11690;51.716;23.066;2023-09-30T02:35:07;20.13;;;12.40;;
23044;SDS011;11690;51.716;23.066;2023-09-30T02:37:35;20.05;;;11.95;;
23044;SDS011;11690;51.716;23.066;2023-09-30T02:40:03;22.60;;;12.20;;
23044;SDS011;11690;51.716;23.066;2023-09-30T02:42:38;23.20;;;12.38;;
23044;SDS011;11690;51.716;23.066;2023-09-30T02:45:06;19.38;;;11.63;;
23044;SDS011;11690;51.716;23.066;2023-09-30T02:47:38;24.75;;;11.55;;
23044;SDS011;11690;51.716;23.066;2023-09-30T02:50:06;19.90;;;11.82;;
23044;SDS011;11690;51.716;23.066;2023-09-30T02:52:53;18.10;;;11.40;;
23044;SDS011;11690;51.716;23.066;2023-09-30T02:55:20;19.33;;;11.95;;
23044;SDS011;11690;51.716;23.066;2023-09-30T02:57:47;21.63;;;11.55;;
23044;SDS011;11690;51.716;23.066;2023-09-30T03:00:15;21.75;;;12.13;;
23044;SDS011;11690;51.716;23.066;2023-09-30T03:02:52;22.30;;;12.25;;
23044;SDS011;11690;51.716;23.066;2023-09-30T03:05:20;18.48;;;11.35;;
23044;SDS011;11690;51.716;23.066;2023-09-30T03:07:49;22.17;;;12.25;;
23044;SDS011;11690;51.716;23.066;2023-09-30T03:10:19;23.60;;;12.55;;
23044;SDS011;11690;51.716;23.066;2023-09-30T03:12:51;25.40;;;13.20;;
23044;SDS011;11690;51.716;23.066;2023-09-30T03:15:18;23.15;;;12.15;;
23044;SDS011;11690;51.716;23.066;2023-09-30T03:17:46;21.63;;;11.77;;
23044;SDS011;11690;51.716;23.066;2023-09-30T03:20:19;21.10;;;11.80;;
23044;SDS011;11690;51.716;23.066;2023-09-30T03:22:47;21.20;;;11.80;;
23044;SDS011;11690;51.716;23.066;2023-09-30T03:25:16;22.10;;;12.60;;
23044;SDS011;11690;51.716;23.066;2023-09-30T03:27:45;26.95;;;12.63;;
23044;SDS011;11690;51.716;23.066;2023-09-30T03:30:16;22.30;;;11.80;;
23044;SDS011;11690;51.716;23.066;2023-09-30T03:32:43;20.13;;;12.02;;
23044;SDS011;11690;51.716;23.066;2023-09-30T03:35:11;22.70;;;12.13;;
23044;SDS011;11690;51.716;23.066;2023-09-30T03:37:45;22.40;;;12.45;;
23044;SDS011;11690;51.716;23.066;2023-09-30T03:40:14;23.05;;;12.75;;
23044;SDS011;11690;51.716;23.066;2023-09-30T03:42:41;20.02;;;12.80;;
23044;SDS011;11690;51.716;23.066;2023-09-30T03:45:11;19.88;;;11.90;;
23044;SDS011;11690;51.716;23.066;2023-09-30T03:47:41;19.70;;;12.07;;
23044;SDS011;11690;51.716;23.066;2023-09-30T03:50:09;23.85;;;12.95;;
23044;SDS011;11690;51.716;23.066;2023-09-30T03:52:41;22.17;;;12.65;;
23044;SDS011;11690;51.716;23.066;2023-09-30T03:55:13;20.73;;;13.38;;
23044;SDS011;11690;51.716;23.066;2023-09-30T03:57:43;27.15;;;14.90;;
23044;SDS011;11690;51.716;23.066;2023-09-30T04:00:14;24.95;;;17.15;;
23044;SDS011;11690;51.716;23.066;2023-09-30T04:02:48;34.55;;;22.55;;
23044;SDS011;11690;51.716;23.066;2023-09-30T04:05:18;30.83;;;23.58;;
23044;SDS011;11690;51.716;23.066;2023-09-30T04:07:46;42.47;;;33.95;;
23044;SDS011;11690;51.716;23.066;2023-09-30T04:10:14;39.20;;;29.45;;
23044;SDS011;11690;51.716;23.066;2023-09-30T04:12:42;49.53;;;40.22;;
23044;SDS011;11690;51.716;23.066;2023-09-30T04:15:09;24.95;;;17.58;;
23044;SDS011;11690;51.716;23.066;2023-09-30T04:17:39;30.48;;;25.25;;
23044;SDS011;11690;51.716;23.066;2023-09-30T04:20:07;55.30;;;46.40;;
23044;SDS011;11690;51.716;23.066;2023-09-30T04:22:37;47.13;;;35.75;;
23044;SDS011;11690;51.716;23.066;2023-09-30T04:25:04;36.28;;;25.10;;
23044;SDS011;11690;51.716;23.066;2023-09-30T04:27:35;37.22;;;30.33;;
23044;SDS011;11690;51.716;23.066;2023-09-30T04:30:03;30.27;;;22.15;;
23044;SDS011;11690;51.716;23.066;2023-09-30T04:32:36;31.48;;;19.80;;
23044;SDS011;11690;51.716;23.066;2023-09-30T04:35:05;21.95;;;14.55;;
23044;SDS011;11690;51.716;23.066;2023-09-30T04:37:32;22.50;;;13.95;;
23044;SDS011;11690;51.716;23.066;2023-09-30T04:40:00;21.25;;;12.48;;
23044;SDS011;11690;51.716;23.066;2023-09-30T04:42:27;25.27;;;15.00;;
23044;SDS011;11690;51.716;23.066;2023-09-30T04:44:55;23.10;;;14.45;;
23044;SDS011;11690;51.716;23.066;2023-09-30T04:47:27;21.20;;;14.10;;
23044;SDS011;11690;51.716;23.066;2023-09-30T04:49:54;25.58;;;13.80;;
23044;SDS011;11690;51.716;23.066;2023-09-30T04:52:21;20.90;;;12.57;;
23044;SDS011;11690;51.716;23.066;2023-09-30T04:54:49;22.52;;;12.50;;
23044;SDS011;11690;51.716;23.066;2023-09-30T04:57:16;24.45;;;13.52;;
23044;SDS011;11690;51.716;23.066;2023-09-30T04:59:43;20.40;;;12.85;;
23044;SDS011;11690;51.716;23.066;2023-09-30T05:02:11;27.95;;;13.30;;
23044;SDS011;11690;51.716;23.066;2023-09-30T05:04:38;24.88;;;12.52;;
23044;SDS011;11690;51.716;23.066;2023-09-30T05:07:05;18.70;;;11.38;;
23044;SDS011;11690;51.716;23.066;2023-09-30T05:09:33;20.02;;;13.65;;
23044;SDS011;11690;51.716;23.066;2023-09-30T05:12:00;23.90;;;13.00;;
23044;SDS011;11690;51.716;23.066;2023-09-30T05:14:27;25.88;;;12.90;;
23044;SDS011;11690;51.716;23.066;2023-09-30T05:16:56;24.45;;;12.77;;
23044;SDS011;11690;51.716;23.066;2023-09-30T05:19:23;22.25;;;12.60;;
23044;SDS011;11690;51.716;23.066;2023-09-30T05:21:50;19.42;;;11.77;;
23044;SDS011;11690;51.716;23.066;2023-09-30T05:24:18;22.63;;;12.55;;
23044;SDS011;11690;51.716;23.066;2023-09-30T05:26:49;22.10;;;12.18;;
23044;SDS011;11690;51.716;23.066;2023-09-30T05:29:15;19.50;;;12.30;;
23044;SDS011;11690;51.716;23.066;2023-09-30T05:31:43;20.65;;;12.25;;
23044;SDS011;11690;51.716;23.066;2023-09-30T05:34:14;26.13;;;12.40;;
23044;SDS011;11690;51.716;23.066;2023-09-30T05:36:42;21.88;;;12.00;;
23044;SDS011;11690;51.716;23.066;2023-09-30T05:39:10;21.88;;;12.82;;
23044;SDS011;11690;51.716;23.066;2023-09-30T05:41:39;23.50;;;12.38;;
23044;SDS011;11690;51.716;23.066;2023-09-30T05:44:06;20.55;;;11.75;;
23044;SDS011;11690;51.716;23.066;2023-09-30T05:46:34;21.15;;;11.82;;
23044;SDS011;11690;51.716;23.066;2023-09-30T05:49:01;23.67;;;12.65;;
23044;SDS011;11690;51.716;23.066;2023-09-30T05:51:29;20.95;;;11.85;;
23044;SDS011;11690;51.716;23.066;2023-09-30T05:53:56;21.10;;;11.32;;
23044;SDS011;11690;51.716;23.066;2023-09-30T05:56:23;25.85;;;12.95;;
23044;SDS011;11690;51.716;23.066;2023-09-30T05:58:50;17.00;;;11.20;;
23044;SDS011;11690;51.716;23.066;2023-09-30T06:01:17;19.27;;;11.25;;
23044;SDS011;11690;51.716;23.066;2023-09-30T06:03:46;26.02;;;12.20;;
23044;SDS011;11690;51.716;23.066;2023-09-30T06:06:16;22.60;;;11.18;;
23044;SDS011;11690;51.716;23.066;2023-09-30T06:08:43;19.23;;;11.05;;
23044;SDS011;11690;51.716;23.066;2023-09-30T06:11:19;19.48;;;11.85;;
23044;SDS011;11690;51.716;23.066;2023-09-30T06:13:52;22.83;;;12.32;;
23044;SDS011;11690;51.716;23.066;2023-09-30T06:16:22;20.77;;;11.63;;
23044;SDS011;11690;51.716;23.066;2023-09-30T06:18:52;27.00;;;14.05;;
23044;SDS011;11690;51.716;23.066;2023-09-30T06:21:21;24.55;;;17.17;;
23044;SDS011;11690;51.716;23.066;2023-09-30T06:23:48;25.05;;;19.90;;
23044;SDS011;11690;51.716;23.066;2023-09-30T06:26:18;27.38;;;18.08;;
23044;SDS011;11690;51.716;23.066;2023-09-30T06:28:47;30.33;;;20.80;;
23044;SDS011;11690;51.716;23.066;2023-09-30T06:31:15;25.08;;;19.63;;
23044;SDS011;11690;51.716;23.066;2023-09-30T06:33:42;28.30;;;18.90;;
23044;SDS011;11690;51.716;23.066;2023-09-30T06:36:11;22.27;;;13.95;;
23044;SDS011;11690;51.716;23.066;2023-09-30T06:38:41;18.90;;;12.38;;
23044;SDS011;11690;51.716;23.066;2023-09-30T06:41:19;22.52;;;12.82;;
23044;SDS011;11690;51.716;23.066;2023-09-30T06:43:46;18.67;;;12.13;;
23044;SDS011;11690;51.716;23.066;2023-09-30T06:46:14;18.58;;;11.95;;
23044;SDS011;11690;51.716;23.066;2023-09-30T06:48:42;20.38;;;13.48;;
23044;SDS011;11690;51.716;23.066;2023-09-30T06:51:13;23.40;;;12.75;;
23044;SDS011;11690;51.716;23.066;2023-09-30T06:53:45;20.23;;;11.25;;
23044;SDS011;11690;51.716;23.066;2023-09-30T06:56:13;17.95;;;11.32;;
23044;SDS011;11690;51.716;23.066;2023-09-30T06:58:41;18.38;;;10.82;;
23044;SDS011;11690;51.716;23.066;2023-09-30T07:01:09;23.23;;;11.32;;
23044;SDS011;11690;51.716;23.066;2023-09-30T07:03:42;21.30;;;11.13;;
23044;SDS011;11690;51.716;23.066;2023-09-30T07:06:09;21.33;;;11.35;;
23044;SDS011;11690;51.716;23.066;2023-09-30T07:08:37;18.27;;;9.85;;
23044;SDS011;11690;51.716;23.066;2023-09-30T07:11:05;21.08;;;10.85;;
23044;SDS011;11690;51.716;23.066;2023-09-30T07:13:35;20.23;;;10.82;;
23044;SDS011;11690;51.716;23.066;2023-09-30T07:16:03;18.88;;;10.77;;
23044;SDS011;11690;51.716;23.066;2023-09-30T07:18:31;21.67;;;10.95;;
23044;SDS011;11690;51.716;23.066;2023-09-30T07:20:58;20.55;;;10.68;;
23044;SDS011;11690;51.716;23.066;2023-09-30T07:23:29;18.25;;;10.13;;
23044;SDS011;11690;51.716;23.066;2023-09-30T07:25:57;22.65;;;10.50;;
23044;SDS011;11690;51.716;23.066;2023-09-30T07:28:24;17.23;;;10.57;;
23044;SDS011;11690;51.716;23.066;2023-09-30T07:30:51;18.40;;;10.80;;
23044;SDS011;11690;51.716;23.066;2023-09-30T07:33:19;26.73;;;14.13;;
23044;SDS011;11690;51.716;23.066;2023-09-30T07:35:46;24.65;;;13.25;;
23044;SDS011;11690;51.716;23.066;2023-09-30T07:38:13;20.63;;;13.57;;
23044;SDS011;11690;51.716;23.066;2023-09-30T07:40:41;22.35;;;10.70;;
23044;SDS011;11690;51.716;23.066;2023-09-30T07:43:10;16.77;;;9.98;;
23044;SDS011;11690;51.716;23.066;2023-09-30T07:45:39;13.48;;;10.18;;
23044;SDS011;11690;51.716;23.066;2023-09-30T07:48:08;16.17;;;10.30;;
23044;SDS011;11690;51.716;23.066;2023-09-30T07:50:37;20.15;;;10.38;;
23044;SDS011;11690;51.716;23.066;2023-09-30T07:53:06;21.58;;;9.88;;
23044;SDS011;11690;51.716;23.066;2023-09-30T07:55:34;19.08;;;10.30;;
23044;SDS011;11690;51.716;23.066;2023-09-30T07:58:01;21.77;;;9.60;;
23044;SDS011;11690;51.716;23.066;2023-09-30T08:00:30;15.57;;;9.90;;
23044;SDS011;11690;51.716;23.066;2023-09-30T08:03:01;22.73;;;10.15;;
23044;SDS011;11690;51.716;23.066;2023-09-30T08:05:29;16.00;;;9.43;;
23044;SDS011;11690;51.716;23.066;2023-09-30T08:07:56;14.43;;;9.60;;
23044;SDS011;11690;51.716;23.066;2023-09-30T08:10:23;16.23;;;9.77;;
23044;SDS011;11690;51.716;23.066;2023-09-30T08:12:51;17.80;;;8.82;;
23044;SDS011;11690;51.716;23.066;2023-09-30T08:15:18;15.52;;;9.18;;
23044;SDS011;11690;51.716;23.066;2023-09-30T08:17:46;18.10;;;9.18;;
23044;SDS011;11690;51.716;23.066;2023-09-30T08:20:14;15.95;;;9.25;;
23044;SDS011;11690;51.716;23.066;2023-09-30T08:22:41;13.60;;;9.20;;
23044;SDS011;11690;51.716;23.066;2023-09-30T08:25:08;17.17;;;9.10;;
23044;SDS011;11690;51.716;23.066;2023-09-30T08:27:38;23.88;;;9.57;;
23044;SDS011;11690;51.716;23.066;2023-09-30T08:30:06;15.07;;;8.85;;
23044;SDS011;11690;51.716;23.066;2023-09-30T08:32:34;20.55;;;8.98;;
23044;SDS011;11690;51.716;23.066;2023-09-30T08:35:03;20.02;;;9.63;;
23044;SDS011;11690;51.716;23.066;2023-09-30T08:37:30;17.55;;;9.15;;
23044;SDS011;11690;51.716;23.066;2023-09-30T08:39:58;17.08;;;8.10;;
23044;SDS011;11690;51.716;23.066;2023-09-30T08:42:26;12.70;;;8.57;;
23044;SDS011;11690;51.716;23.066;2023-09-30T08:45:01;16.58;;;8.55;;
23044;SDS011;11690;51.716;23.066;2023-09-30T08:47:28;17.67;;;8.65;;
23044;SDS011;11690;51.716;23.066;2023-09-30T08:49:59;15.43;;;8.48;;
23044;SDS011;11690;51.716;23.066;2023-09-30T08:52:33;15.85;;;9.05;;
23044;SDS011;11690;51.716;23.066;2023-09-30T08:55:06;15.35;;;9.43;;
23044;SDS011;11690;51.716;23.066;2023-09-30T08:57:38;18.15;;;9.55;;
23044;SDS011;11690;51.716;23.066;2023-09-30T09:00:09;20.95;;;9.55;;
23044;SDS011;11690;51.716;23.066;2023-09-30T09:02:40;21.25;;;9.40;;
23044;SDS011;11690;51.716;23.066;2023-09-30T09:05:09;16.02;;;9.05;;
23044;SDS011;11690;51.716;23.066;2023-09-30T09:07:36;19.77;;;10.35;;
23044;SDS011;11690;51.716;23.066;2023-09-30T09:10:08;16.00;;;9.95;;
23044;SDS011;11690;51.716;23.066;2023-09-30T09:12:37;21.20;;;9.55;;
23044;SDS011;11690;51.716;23.066;2023-09-30T09:15:06;19.02;;;10.13;;
23044;SDS011;11690;51.716;23.066;2023-09-30T09:17:44;20.67;;;10.65;;
23044;SDS011;11690;51.716;23.066;2023-09-30T09:20:16;16.88;;;9.80;;
23044;SDS011;11690;51.716;23.066;2023-09-30T09:22:49;18.88;;;10.30;;
23044;SDS011;11690;51.716;23.066;2023-09-30T09:25:20;17.80;;;10.55;;
23044;SDS011;11690;51.716;23.066;2023-09-30T09:27:51;20.15;;;10.13;;
23044;SDS011;11690;51.716;23.066;2023-09-30T09:32:54;18.83;;;11.18;;
23044;SDS011;11690;51.716;23.066;2023-09-30T09:35:30;17.92;;;10.80;;
23044;SDS011;11690;51.716;23.066;2023-09-30T09:40:36;20.35;;;10.95;;
23044;SDS011;11690;51.716;23.066;2023-09-30T09:43:07;19.42;;;10.77;;
23044;SDS011;11690;51.716;23.066;2023-09-30T09:45:37;17.88;;;11.25;;
23044;SDS011;11690;51.716;23.066;2023-09-30T09:48:05;20.15;;;10.93;;
23044;SDS011;11690;51.716;23.066;2023-09-30T09:50:34;19.00;;;9.75;;
23044;SDS011;11690;51.716;23.066;2023-09-30T09:53:05;21.23;;;9.88;;
23044;SDS011;11690;51.716;23.066;2023-09-30T09:55:33;19.80;;;10.02;;
23044;SDS011;11690;51.716;23.066;2023-09-30T09:58:05;19.20;;;9.82;;
23044;SDS011;11690;51.716;23.066;2023-09-30T10:00:33;19.88;;;9.93;;
23044;SDS011;11690;51.716;23.066;2023-09-30T10:03:02;16.08;;;9.65;;
23044;SDS011;11690;51.716;23.066;2023-09-30T10:05:30;18.98;;;10.45;;
23044;SDS011;11690;51.716;23.066;2023-09-30T10:08:02;15.85;;;9.80;;
23044;SDS011;11690;51.716;23.066;2023-09-30T10:10:31;16.63;;;10.05;;
23044;SDS011;11690;51.716;23.066;2023-09-30T10:13:03;14.85;;;9.38;;
23044;SDS011;11690;51.716;23.066;2023-09-30T10:18:02;18.92;;;10.25;;
23044;SDS011;11690;51.716;23.066;2023-09-30T10:20:31;16.58;;;9.95;;
23044;SDS011;11690;51.716;23.066;2023-09-30T10:25:45;16.75;;;10.20;;
23044;SDS011;11690;51.716;23.066;2023-09-30T10:28:35;21.27;;;11.77;;
23044;SDS011;11690;51.716;23.066;2023-09-30T10:31:19;17.85;;;10.65;;
23044;SDS011;11690;51.716;23.066;2023-09-30T10:34:22;21.58;;;10.52;;
23044;SDS011;11690;51.716;23.066;2023-09-30T10:36:46;18.80;;;11.27;;
23044;SDS011;11690;51.716;23.066;2023-09-30T10:39:14;19.25;;;10.32;;
23044;SDS011;11690;51.716;23.066;2023-09-30T10:41:48;16.20;;;10.32;;
23044;SDS011;11690;51.716;23.066;2023-09-30T10:46:58;18.42;;;11.40;;
23044;SDS011;11690;51.716;23.066;2023-09-30T10:51:54;19.42;;;10.40;;
23044;SDS011;11690;51.716;23.066;2023-09-30T10:54:30;17.98;;;10.23;;
23044;SDS011;11690;51.716;23.066;2023-09-30T10:56:59;16.27;;;10.45;;
23044;SDS011;11690;51.716;23.066;2023-09-30T10:59:27;18.25;;;10.60;;
23044;SDS011;11690;51.716;23.066;2023-09-30T11:01:58;20.02;;;10.75;;
23044;SDS011;11690;51.716;23.066;2023-09-30T11:04:26;16.85;;;10.95;;
23044;SDS011;11690;51.716;23.066;2023-09-30T11:06:56;20.80;;;11.32;;
23044;SDS011;11690;51.716;23.066;2023-09-30T11:09:24;18.42;;;10.77;;
23044;SDS011;11690;51.716;23.066;2023-09-30T11:11:52;19.77;;;11.05;;
23044;SDS011;11690;51.716;23.066;2023-09-30T11:14:25;19.38;;;10.77;;
23044;SDS011;11690;51.716;23.066;2023-09-30T11:16:57;23.73;;;11.35;;
23044;SDS011;11690;51.716;23.066;2023-09-30T11:19:34;18.40;;;10.85;;
23044;SDS011;11690;51.716;23.066;2023-09-30T11:22:02;16.35;;;11.07;;
23044;SDS011;11690;51.716;23.066;2023-09-30T11:24:30;22.40;;;11.30;;
23044;SDS011;11690;51.716;23.066;2023-09-30T11:26:57;17.83;;;11.15;;
23044;SDS011;11690;51.716;23.066;2023-09-30T11:29:24;17.70;;;11.27;;
23044;SDS011;11690;51.716;23.066;2023-09-30T11:31:54;15.32;;;11.45;;
23044;SDS011;11690;51.716;23.066;2023-09-30T11:34:31;19.77;;;12.15;;
23044;SDS011;11690;51.716;23.066;2023-09-30T11:37:00;17.70;;;11.73;;
23044;SDS011;11690;51.716;23.066;2023-09-30T11:39:28;20.17;;;12.13;;
23044;SDS011;11690;51.716;23.066;2023-09-30T11:41:57;22.45;;;11.75;;
23044;SDS011;11690;51.716;23.066;2023-09-30T11:44:25;18.50;;;11.98;;
23044;SDS011;11690;51.716;23.066;2023-09-30T11:52:02;17.33;;;10.35;;
23044;SDS011;11690;51.716;23.066;2023-09-30T11:54:38;18.73;;;10.95;;
23044;SDS011;11690;51.716;23.066;2023-09-30T11:57:16;23.00;;;11.15;;
23044;SDS011;11690;51.716;23.066;2023-09-30T11:59:44;18.67;;;11.48;;
23044;SDS011;11690;51.716;23.066;2023-09-30T12:02:13;15.90;;;11.20;;
23044;SDS011;11690;51.716;23.066;2023-09-30T12:04:42;16.95;;;11.75;;
23044;SDS011;11690;51.716;23.066;2023-09-30T12:07:11;17.92;;;12.02;;
23044;SDS011;11690;51.716;23.066;2023-09-30T12:09:39;19.77;;;11.90;;
23044;SDS011;11690;51.716;23.066;2023-09-30T12:12:07;21.92;;;12.13;;
23044;SDS011;11690;51.716;23.066;2023-09-30T12:14:37;16.75;;;10.98;;
23044;SDS011;11690;51.716;23.066;2023-09-30T12:17:17;18.73;;;12.10;;
23044;SDS011;11690;51.716;23.066;2023-09-30T12:19:44;20.23;;;12.00;;
23044;SDS011;11690;51.716;23.066;2023-09-30T12:22:11;21.30;;;13.02;;
23044;SDS011;11690;51.716;23.066;2023-09-30T12:24:38;21.02;;;12.98;;
23044;SDS011;11690;51.716;23.066;2023-09-30T12:27:07;19.42;;;12.75;;
23044;SDS011;11690;51.716;23.066;2023-09-30T12:29:34;20.25;;;13.23;;
23044;SDS011;11690;51.716;23.066;2023-09-30T12:32:01;23.23;;;12.85;;
23044;SDS011;11690;51.716;23.066;2023-09-30T12:34:29;22.83;;;13.82;;
23044;SDS011;11690;51.716;23.066;2023-09-30T12:36:57;22.88;;;12.88;;
23044;SDS011;11690;51.716;23.066;2023-09-30T12:39:25;17.70;;;12.32;;
23044;SDS011;11690;51.716;23.066;2023-09-30T12:41:54;18.92;;;13.18;;
23044;SDS011;11690;51.716;23.066;2023-09-30T12:44:22;17.83;;;12.27;;
23044;SDS011;11690;51.716;23.066;2023-09-30T12:46:50;21.25;;;12.60;;
23044;SDS011;11690;51.716;23.066;2023-09-30T12:49:18;19.77;;;13.30;;
23044;SDS011;11690;51.716;23.066;2023-09-30T12:51:46;24.05;;;13.88;;
23044;SDS011;11690;51.716;23.066;2023-09-30T12:54:13;27.63;;;15.23;;
23044;SDS011;11690;51.716;23.066;2023-09-30T12:56:42;23.60;;;14.73;;
23044;SDS011;11690;51.716;23.066;2023-09-30T12:59:09;28.67;;;14.82;;
23044;SDS011;11690;51.716;23.066;2023-09-30T13:01:36;25.95;;;15.07;;
23044;SDS011;11690;51.716;23.066;2023-09-30T13:04:03;27.08;;;15.27;;
23044;SDS011;11690;51.716;23.066;2023-09-30T13:06:35;27.58;;;16.48;;
23044;SDS011;11690;51.716;23.066;2023-09-30T13:09:03;26.65;;;14.88;;
23044;SDS011;11690;51.716;23.066;2023-09-30T13:11:31;25.23;;;14.90;;
23044;SDS011;11690;51.716;23.066;2023-09-30T13:14:03;24.85;;;15.18;;
23044;SDS011;11690;51.716;23.066;2023-09-30T13:16:30;23.35;;;15.30;;
23044;SDS011;11690;51.716;23.066;2023-09-30T13:18:58;23.30;;;15.00;;
23044;SDS011;11690;51.716;23.066;2023-09-30T13:21:26;24.48;;;16.17;;
23044;SDS011;11690;51.716;23.066;2023-09-30T13:23:53;23.88;;;15.82;;
23044;SDS011;11690;51.716;23.066;2023-09-30T13:26:21;28.02;;;15.57;;
23044;SDS011;11690;51.716;23.066;2023-09-30T13:28:48;30.98;;;15.98;;
23044;SDS011;11690;51.716;23.066;2023-09-30T13:31:15;23.10;;;14.77;;
23044;SDS011;11690;51.716;23.066;2023-09-30T13:33:43;25.30;;;14.80;;
23044;SDS011;11690;51.716;23.066;2023-09-30T13:36:11;23.42;;;14.18;;
23044;SDS011;11690;51.716;23.066;2023-09-30T13:38:38;22.75;;;15.27;;
23044;SDS011;11690;51.716;23.066;2023-09-30T13:41:05;30.08;;;14.73;;
23044;SDS011;11690;51.716;23.066;2023-09-30T13:43:32;28.45;;;16.08;;
23044;SDS011;11690;51.716;23.066;2023-09-30T13:46:03;22.35;;;14.90;;
23044;SDS011;11690;51.716;23.066;2023-09-30T13:48:33;25.95;;;17.25;;
23044;SDS011;11690;51.716;23.066;2023-09-30T13:51:05;25.92;;;15.93;;
23044;SDS011;11690;51.716;23.066;2023-09-30T13:53:33;23.08;;;15.68;;
23044;SDS011;11690;51.716;23.066;2023-09-30T13:56:00;23.95;;;15.65;;
23044;SDS011;11690;51.716;23.066;2023-09-30T13:58:27;28.98;;;16.48;;
23044;SDS011;11690;51.716;23.066;2023-09-30T14:00:55;26.92;;;16.27;;
23044;SDS011;11690;51.716;23.066;2023-09-30T14:03:25;24.48;;;16.15;;
23044;SDS011;11690;51.716;23.066;2023-09-30T14:05:53;26.95;;;16.25;;
23044;SDS011;11690;51.716;23.066;2023-09-30T14:08:20;28.10;;;16.17;;
23044;SDS011;11690;51.716;23.066;2023-09-30T14:10:47;23.90;;;15.18;;
23044;SDS011;11690;51.716;23.066;2023-09-30T14:13:16;21.60;;;14.60;;
23044;SDS011;11690;51.716;23.066;2023-09-30T14:15:46;22.75;;;13.85;;
23044;SDS011;11690;51.716;23.066;2023-09-30T14:18:16;19.48;;;13.70;;
23044;SDS011;11690;51.716;23.066;2023-09-30T14:20:43;23.60;;;14.30;;
23044;SDS011;11690;51.716;23.066;2023-09-30T14:23:11;18.48;;;12.27;;
23044;SDS011;11690;51.716;23.066;2023-09-30T14:25:38;17.77;;;11.45;;
23044;SDS011;11690;51.716;23.066;2023-09-30T14:28:06;15.20;;;10.07;;
23044;SDS011;11690;51.716;23.066;2023-09-30T14:30:33;18.40;;;10.77;;
23044;SDS011;11690;51.716;23.066;2023-09-30T14:33:01;10.80;;;7.38;;
23044;SDS011;11690;51.716;23.066;2023-09-30T14:35:28;11.98;;;6.43;;
23044;SDS011;11690;51.716;23.066;2023-09-30T14:37:55;9.52;;;6.95;;
23044;SDS011;11690;51.716;23.066;2023-09-30T14:40:25;13.20;;;5.70;;
23044;SDS011;11690;51.716;23.066;2023-09-30T14:42:52;7.70;;;5.05;;